sensor_id;sensor_type;location;lat;lon;timestamp;P1;durP1;ratioP1;P2;durP2;ratioP2
84943;SDS011;75231;53.650;9.788;2024-03-02T00:01:21;19.10;;;10.77;;
84943;SDS011;75231;53.650;9.788;2024-03-02T00:03:47;22.63;;;12.23;;
84943;SDS011;75231;53.650;9.788;2024-03-02T00:06:16;21.42;;;12.77;;
84943;SDS011;75231;53.650;9.788;2024-03-02T00:08:45;18.50;;;11.50;;
84943;SDS011;75231;53.650;9.788;2024-03-02T00:11:10;21.42;;;12.45;;
84943;SDS011;75231;53.650;9.788;2024-03-02T00:13:39;20.10;;;11.68;;
84943;SDS011;75231;53.650;9.788;2024-03-02T00:16:04;20.45;;;12.50;;
84943;SDS011;75231;53.650;9.788;2024-03-02T00:18:31;20.92;;;12.40;;
84943;SDS011;75231;53.650;9.788;2024-03-02T00:21:03;18.50;;;11.50;;
84943;SDS011;75231;53.650;9.788;2024-03-02T00:23:31;24.17;;;12.77;;
84943;SDS011;75231;53.650;9.788;2024-03-02T00:25:57;22.25;;;12.90;;
84943;SDS011;75231;53.650;9.788;2024-03-02T00:28:34;20.65;;;12.93;;
84943;SDS011;75231;53.650;9.788;2024-03-02T00:31:07;24.25;;;13.57;;
84943;SDS011;75231;53.650;9.788;2024-03-02T00:33:37;21.33;;;12.35;;
84943;SDS011;75231;53.650;9.788;2024-03-02T00:36:14;22.48;;;12.65;;
84943;SDS011;75231;53.650;9.788;2024-03-02T00:38:47;21.42;;;12.50;;
84943;SDS011;75231;53.650;9.788;2024-03-02T00:44:06;19.10;;;11.45;;
84943;SDS011;75231;53.650;9.788;2024-03-02T00:46:33;22.40;;;12.57;;
84943;SDS011;75231;53.650;9.788;2024-03-02T00:49:04;21.40;;;11.63;;
84943;SDS011;75231;53.650;9.788;2024-03-02T00:51:31;22.92;;;13.23;;
84943;SDS011;75231;53.650;9.788;2024-03-02T00:53:59;21.83;;;11.93;;
84943;SDS011;75231;53.650;9.788;2024-03-02T00:56:28;22.67;;;12.35;;
84943;SDS011;75231;53.650;9.788;2024-03-02T00:58:54;22.02;;;11.95;;
84943;SDS011;75231;53.650;9.788;2024-03-02T01:01:20;21.85;;;13.20;;
84943;SDS011;75231;53.650;9.788;2024-03-02T01:03:45;23.15;;;11.45;;
84943;SDS011;75231;53.650;9.788;2024-03-02T01:06:10;19.85;;;12.45;;
84943;SDS011;75231;53.650;9.788;2024-03-02T01:08:39;26.00;;;12.43;;
84943;SDS011;75231;53.650;9.788;2024-03-02T01:11:04;19.98;;;12.65;;
84943;SDS011;75231;53.650;9.788;2024-03-02T01:13:30;20.98;;;12.23;;
84943;SDS011;75231;53.650;9.788;2024-03-02T01:15:56;21.67;;;11.35;;
84943;SDS011;75231;53.650;9.788;2024-03-02T01:18:22;23.10;;;13.40;;
84943;SDS011;75231;53.650;9.788;2024-03-02T01:20:47;22.83;;;11.65;;
84943;SDS011;75231;53.650;9.788;2024-03-02T01:23:13;21.67;;;13.05;;
84943;SDS011;75231;53.650;9.788;2024-03-02T01:25:38;21.42;;;12.52;;
84943;SDS011;75231;53.650;9.788;2024-03-02T01:28:04;24.02;;;12.93;;
84943;SDS011;75231;53.650;9.788;2024-03-02T01:30:30;23.52;;;13.50;;
84943;SDS011;75231;53.650;9.788;2024-03-02T01:36:20;26.33;;;13.80;;
84943;SDS011;75231;53.650;9.788;2024-03-02T01:38:46;26.52;;;13.32;;
84943;SDS011;75231;53.650;9.788;2024-03-02T01:41:13;28.33;;;15.68;;
84943;SDS011;75231;53.650;9.788;2024-03-02T01:43:39;25.83;;;15.32;;
84943;SDS011;75231;53.650;9.788;2024-03-02T01:46:04;27.90;;;15.77;;
84943;SDS011;75231;53.650;9.788;2024-03-02T01:48:29;31.55;;;16.98;;
84943;SDS011;75231;53.650;9.788;2024-03-02T01:50:55;33.58;;;17.90;;
84943;SDS011;75231;53.650;9.788;2024-03-02T01:53:20;33.83;;;16.15;;
84943;SDS011;75231;53.650;9.788;2024-03-02T01:55:45;28.05;;;16.05;;
84943;SDS011;75231;53.650;9.788;2024-03-02T01:58:13;33.83;;;17.00;;
84943;SDS011;75231;53.650;9.788;2024-03-02T02:00:38;32.28;;;16.90;;
84943;SDS011;75231;53.650;9.788;2024-03-02T02:03:04;35.63;;;16.63;;
84943;SDS011;75231;53.650;9.788;2024-03-02T02:05:29;29.38;;;14.68;;
84943;SDS011;75231;53.650;9.788;2024-03-02T02:07:56;30.23;;;15.88;;
84943;SDS011;75231;53.650;9.788;2024-03-02T02:10:23;37.85;;;18.75;;
84943;SDS011;75231;53.650;9.788;2024-03-02T02:12:49;36.33;;;19.10;;
84943;SDS011;75231;53.650;9.788;2024-03-02T02:15:27;36.33;;;18.20;;
84943;SDS011;75231;53.650;9.788;2024-03-02T02:17:57;35.63;;;18.70;;
84943;SDS011;75231;53.650;9.788;2024-03-02T02:20:23;33.38;;;18.45;;
84943;SDS011;75231;53.650;9.788;2024-03-02T02:23:04;37.15;;;18.15;;
84943;SDS011;75231;53.650;9.788;2024-03-02T02:25:43;35.85;;;18.35;;
84943;SDS011;75231;53.650;9.788;2024-03-02T02:28:09;36.28;;;18.30;;
84943;SDS011;75231;53.650;9.788;2024-03-02T02:30:35;29.92;;;16.85;;
84943;SDS011;75231;53.650;9.788;2024-03-02T02:33:00;33.55;;;17.33;;
84943;SDS011;75231;53.650;9.788;2024-03-02T02:35:25;35.95;;;18.80;;
84943;SDS011;75231;53.650;9.788;2024-03-02T02:40:17;33.88;;;16.27;;
84943;SDS011;75231;53.650;9.788;2024-03-02T02:42:43;38.30;;;19.67;;
84943;SDS011;75231;53.650;9.788;2024-03-02T02:47:35;35.40;;;16.85;;
84943;SDS011;75231;53.650;9.788;2024-03-02T02:52:34;37.08;;;17.27;;
84943;SDS011;75231;53.650;9.788;2024-03-02T02:55:02;38.80;;;18.83;;
84943;SDS011;75231;53.650;9.788;2024-03-02T02:57:28;35.35;;;17.98;;
84943;SDS011;75231;53.650;9.788;2024-03-02T02:59:59;38.65;;;18.77;;
84943;SDS011;75231;53.650;9.788;2024-03-02T03:02:24;39.38;;;18.00;;
84943;SDS011;75231;53.650;9.788;2024-03-02T03:04:53;40.60;;;20.45;;
84943;SDS011;75231;53.650;9.788;2024-03-02T03:07:18;44.45;;;20.15;;
84943;SDS011;75231;53.650;9.788;2024-03-02T03:09:43;33.67;;;17.63;;
84943;SDS011;75231;53.650;9.788;2024-03-02T03:12:08;37.47;;;18.55;;
84943;SDS011;75231;53.650;9.788;2024-03-02T03:14:34;35.97;;;18.40;;
84943;SDS011;75231;53.650;9.788;2024-03-02T03:16:59;43.40;;;19.17;;
84943;SDS011;75231;53.650;9.788;2024-03-02T03:19:31;34.70;;;17.80;;
84943;SDS011;75231;53.650;9.788;2024-03-02T03:21:56;37.58;;;18.88;;
84943;SDS011;75231;53.650;9.788;2024-03-02T03:26:47;35.30;;;17.77;;
84943;SDS011;75231;53.650;9.788;2024-03-02T03:29:12;39.50;;;19.02;;
84943;SDS011;75231;53.650;9.788;2024-03-02T03:31:37;37.83;;;17.75;;
84943;SDS011;75231;53.650;9.788;2024-03-02T03:34:03;37.38;;;19.20;;
84943;SDS011;75231;53.650;9.788;2024-03-02T03:38:53;39.72;;;19.63;;
84943;SDS011;75231;53.650;9.788;2024-03-02T03:41:19;36.47;;;18.08;;
84943;SDS011;75231;53.650;9.788;2024-03-02T03:43:44;35.70;;;19.30;;
84943;SDS011;75231;53.650;9.788;2024-03-02T03:46:09;39.80;;;18.08;;
84943;SDS011;75231;53.650;9.788;2024-03-02T03:48:35;39.63;;;18.13;;
84943;SDS011;75231;53.650;9.788;2024-03-02T03:51:00;32.33;;;18.45;;
84943;SDS011;75231;53.650;9.788;2024-03-02T03:53:25;37.63;;;19.63;;
84943;SDS011;75231;53.650;9.788;2024-03-02T03:55:51;34.00;;;18.73;;
84943;SDS011;75231;53.650;9.788;2024-03-02T03:58:16;38.35;;;18.13;;
84943;SDS011;75231;53.650;9.788;2024-03-02T04:00:43;36.00;;;18.35;;
84943;SDS011;75231;53.650;9.788;2024-03-02T04:05:34;39.20;;;17.40;;
84943;SDS011;75231;53.650;9.788;2024-03-02T04:07:59;35.92;;;18.17;;
84943;SDS011;75231;53.650;9.788;2024-03-02T04:10:25;36.08;;;18.20;;
84943;SDS011;75231;53.650;9.788;2024-03-02T04:12:50;35.50;;;17.88;;
84943;SDS011;75231;53.650;9.788;2024-03-02T04:15:16;34.10;;;17.17;;
84943;SDS011;75231;53.650;9.788;2024-03-02T04:17:43;35.05;;;17.52;;
84943;SDS011;75231;53.650;9.788;2024-03-02T04:20:09;35.70;;;18.08;;
84943;SDS011;75231;53.650;9.788;2024-03-02T04:22:34;39.50;;;20.20;;
84943;SDS011;75231;53.650;9.788;2024-03-02T04:25:01;35.05;;;18.38;;
84943;SDS011;75231;53.650;9.788;2024-03-02T04:27:26;37.47;;;18.83;;
84943;SDS011;75231;53.650;9.788;2024-03-02T04:29:52;37.40;;;17.52;;
84943;SDS011;75231;53.650;9.788;2024-03-02T04:32:17;38.28;;;19.20;;
84943;SDS011;75231;53.650;9.788;2024-03-02T04:34:44;35.28;;;19.17;;
84943;SDS011;75231;53.650;9.788;2024-03-02T04:37:10;33.83;;;17.65;;
84943;SDS011;75231;53.650;9.788;2024-03-02T04:39:37;34.10;;;16.90;;
84943;SDS011;75231;53.650;9.788;2024-03-02T04:42:02;33.55;;;17.83;;
84943;SDS011;75231;53.650;9.788;2024-03-02T04:44:28;34.50;;;18.08;;
84943;SDS011;75231;53.650;9.788;2024-03-02T04:46:53;33.05;;;17.60;;
84943;SDS011;75231;53.650;9.788;2024-03-02T04:49:18;34.00;;;17.92;;
84943;SDS011;75231;53.650;9.788;2024-03-02T04:51:44;38.55;;;18.85;;
84943;SDS011;75231;53.650;9.788;2024-03-02T04:54:09;33.42;;;17.90;;
84943;SDS011;75231;53.650;9.788;2024-03-02T04:59:09;36.88;;;17.30;;
84943;SDS011;75231;53.650;9.788;2024-03-02T05:01:35;31.88;;;18.88;;
84943;SDS011;75231;53.650;9.788;2024-03-02T05:04:01;37.88;;;18.30;;
84943;SDS011;75231;53.650;9.788;2024-03-02T05:06:26;32.47;;;18.40;;
84943;SDS011;75231;53.650;9.788;2024-03-02T05:08:52;37.60;;;19.27;;
84943;SDS011;75231;53.650;9.788;2024-03-02T05:11:17;34.33;;;16.98;;
84943;SDS011;75231;53.650;9.788;2024-03-02T05:14:01;33.17;;;17.73;;
84943;SDS011;75231;53.650;9.788;2024-03-02T05:16:26;30.45;;;18.15;;
84943;SDS011;75231;53.650;9.788;2024-03-02T05:18:52;33.65;;;18.73;;
84943;SDS011;75231;53.650;9.788;2024-03-02T05:23:43;34.03;;;17.73;;
84943;SDS011;75231;53.650;9.788;2024-03-02T05:26:09;33.80;;;17.52;;
84943;SDS011;75231;53.650;9.788;2024-03-02T05:28:37;31.10;;;16.55;;
84943;SDS011;75231;53.650;9.788;2024-03-02T05:33:28;34.67;;;17.43;;
84943;SDS011;75231;53.650;9.788;2024-03-02T05:35:56;37.60;;;17.70;;
84943;SDS011;75231;53.650;9.788;2024-03-02T05:38:22;36.40;;;18.65;;
84943;SDS011;75231;53.650;9.788;2024-03-02T05:40:47;33.35;;;17.60;;
84943;SDS011;75231;53.650;9.788;2024-03-02T05:43:15;39.28;;;17.80;;
84943;SDS011;75231;53.650;9.788;2024-03-02T05:48:08;38.45;;;19.20;;
84943;SDS011;75231;53.650;9.788;2024-03-02T05:50:34;37.10;;;18.70;;
84943;SDS011;75231;53.650;9.788;2024-03-02T05:53:00;39.45;;;20.30;;
84943;SDS011;75231;53.650;9.788;2024-03-02T05:57:50;40.20;;;18.47;;
84943;SDS011;75231;53.650;9.788;2024-03-02T06:00:31;33.58;;;17.75;;
84943;SDS011;75231;53.650;9.788;2024-03-02T06:02:57;37.50;;;19.45;;
84943;SDS011;75231;53.650;9.788;2024-03-02T06:07:48;36.03;;;18.73;;
84943;SDS011;75231;53.650;9.788;2024-03-02T06:10:13;34.50;;;17.77;;
84943;SDS011;75231;53.650;9.788;2024-03-02T06:15:05;32.90;;;16.70;;
84943;SDS011;75231;53.650;9.788;2024-03-02T06:19:55;37.95;;;18.88;;
84943;SDS011;75231;53.650;9.788;2024-03-02T06:24:48;35.53;;;18.10;;
84943;SDS011;75231;53.650;9.788;2024-03-02T06:27:14;39.05;;;19.67;;
84943;SDS011;75231;53.650;9.788;2024-03-02T06:29:39;36.33;;;18.60;;
84943;SDS011;75231;53.650;9.788;2024-03-02T06:34:30;43.33;;;21.15;;
84943;SDS011;75231;53.650;9.788;2024-03-02T06:36:58;33.97;;;17.92;;
84943;SDS011;75231;53.650;9.788;2024-03-02T06:41:48;40.22;;;19.60;;
84943;SDS011;75231;53.650;9.788;2024-03-02T06:46:47;35.80;;;17.33;;
84943;SDS011;75231;53.650;9.788;2024-03-02T06:49:14;36.17;;;18.30;;
84943;SDS011;75231;53.650;9.788;2024-03-02T06:51:42;36.90;;;19.48;;
84943;SDS011;75231;53.650;9.788;2024-03-02T06:56:33;35.30;;;18.30;;
84943;SDS011;75231;53.650;9.788;2024-03-02T07:01:23;31.52;;;16.23;;
84943;SDS011;75231;53.650;9.788;2024-03-02T07:03:51;33.30;;;17.88;;
84943;SDS011;75231;53.650;9.788;2024-03-02T07:08:41;30.97;;;15.80;;
84943;SDS011;75231;53.650;9.788;2024-03-02T07:13:32;34.17;;;17.50;;
84943;SDS011;75231;53.650;9.788;2024-03-02T07:15:57;31.38;;;17.27;;
84943;SDS011;75231;53.650;9.788;2024-03-02T07:18:31;38.58;;;18.77;;
84943;SDS011;75231;53.650;9.788;2024-03-02T07:20:57;34.88;;;17.70;;
84943;SDS011;75231;53.650;9.788;2024-03-02T07:23:26;33.38;;;17.00;;
84943;SDS011;75231;53.650;9.788;2024-03-02T07:25:54;31.23;;;16.15;;
84943;SDS011;75231;53.650;9.788;2024-03-02T07:28:21;35.70;;;18.23;;
84943;SDS011;75231;53.650;9.788;2024-03-02T07:30:59;33.17;;;16.10;;
84943;SDS011;75231;53.650;9.788;2024-03-02T07:33:29;29.17;;;17.05;;
84943;SDS011;75231;53.650;9.788;2024-03-02T07:35:58;39.90;;;17.85;;
84943;SDS011;75231;53.650;9.788;2024-03-02T07:38:25;31.73;;;17.10;;
84943;SDS011;75231;53.650;9.788;2024-03-02T07:43:16;34.75;;;17.48;;
84943;SDS011;75231;53.650;9.788;2024-03-02T07:45:42;29.65;;;15.43;;
84943;SDS011;75231;53.650;9.788;2024-03-02T07:48:11;28.55;;;15.95;;
84943;SDS011;75231;53.650;9.788;2024-03-02T07:50:36;34.95;;;16.80;;
84943;SDS011;75231;53.650;9.788;2024-03-02T07:53:03;30.45;;;16.40;;
84943;SDS011;75231;53.650;9.788;2024-03-02T07:55:29;33.55;;;18.27;;
84943;SDS011;75231;53.650;9.788;2024-03-02T07:57:55;29.95;;;16.80;;
84943;SDS011;75231;53.650;9.788;2024-03-02T08:00:21;32.97;;;16.95;;
84943;SDS011;75231;53.650;9.788;2024-03-02T08:02:48;27.65;;;15.98;;
84943;SDS011;75231;53.650;9.788;2024-03-02T08:05:15;31.67;;;15.40;;
84943;SDS011;75231;53.650;9.788;2024-03-02T08:07:41;29.25;;;16.23;;
84943;SDS011;75231;53.650;9.788;2024-03-02T08:10:09;34.95;;;18.10;;
84943;SDS011;75231;53.650;9.788;2024-03-02T08:12:34;33.03;;;16.83;;
84943;SDS011;75231;53.650;9.788;2024-03-02T08:14:59;28.42;;;15.57;;
84943;SDS011;75231;53.650;9.788;2024-03-02T08:17:25;29.25;;;16.45;;
84943;SDS011;75231;53.650;9.788;2024-03-02T08:19:50;31.08;;;16.98;;
84943;SDS011;75231;53.650;9.788;2024-03-02T08:22:15;31.38;;;16.17;;
84943;SDS011;75231;53.650;9.788;2024-03-02T08:24:42;29.05;;;16.25;;
84943;SDS011;75231;53.650;9.788;2024-03-02T08:27:10;28.45;;;15.82;;
84943;SDS011;75231;53.650;9.788;2024-03-02T08:29:37;26.55;;;14.32;;
84943;SDS011;75231;53.650;9.788;2024-03-02T08:34:32;27.55;;;15.43;;
84943;SDS011;75231;53.650;9.788;2024-03-02T08:36:58;30.48;;;15.90;;
84943;SDS011;75231;53.650;9.788;2024-03-02T08:41:49;28.30;;;14.65;;
84943;SDS011;75231;53.650;9.788;2024-03-02T08:44:15;25.52;;;14.50;;
84943;SDS011;75231;53.650;9.788;2024-03-02T08:46:41;28.35;;;16.52;;
84943;SDS011;75231;53.650;9.788;2024-03-02T08:49:07;28.08;;;15.02;;
84943;SDS011;75231;53.650;9.788;2024-03-02T08:51:32;25.73;;;15.05;;
84943;SDS011;75231;53.650;9.788;2024-03-02T08:53:58;27.15;;;15.27;;
84943;SDS011;75231;53.650;9.788;2024-03-02T08:56:24;28.88;;;15.88;;
84943;SDS011;75231;53.650;9.788;2024-03-02T08:58:50;23.42;;;13.68;;
84943;SDS011;75231;53.650;9.788;2024-03-02T09:01:16;29.25;;;15.90;;
84943;SDS011;75231;53.650;9.788;2024-03-02T09:03:42;26.00;;;14.52;;
84943;SDS011;75231;53.650;9.788;2024-03-02T09:06:11;28.00;;;14.48;;
84943;SDS011;75231;53.650;9.788;2024-03-02T09:08:36;25.52;;;13.80;;
84943;SDS011;75231;53.650;9.788;2024-03-02T09:11:03;23.27;;;12.93;;
84943;SDS011;75231;53.650;9.788;2024-03-02T09:13:29;24.75;;;14.68;;
84943;SDS011;75231;53.650;9.788;2024-03-02T09:15:58;22.63;;;13.52;;
84943;SDS011;75231;53.650;9.788;2024-03-02T09:18:23;22.08;;;12.85;;
84943;SDS011;75231;53.650;9.788;2024-03-02T09:20:49;24.05;;;12.32;;
84943;SDS011;75231;53.650;9.788;2024-03-02T09:23:14;24.98;;;14.88;;
84943;SDS011;75231;53.650;9.788;2024-03-02T09:25:39;23.42;;;13.60;;
84943;SDS011;75231;53.650;9.788;2024-03-02T09:28:05;25.85;;;13.32;;
84943;SDS011;75231;53.650;9.788;2024-03-02T09:30:30;24.10;;;12.98;;
84943;SDS011;75231;53.650;9.788;2024-03-02T09:32:56;22.17;;;13.05;;
84943;SDS011;75231;53.650;9.788;2024-03-02T09:35:21;23.17;;;12.85;;
84943;SDS011;75231;53.650;9.788;2024-03-02T09:37:47;23.52;;;13.32;;
84943;SDS011;75231;53.650;9.788;2024-03-02T09:40:12;23.27;;;13.32;;
84943;SDS011;75231;53.650;9.788;2024-03-02T09:42:38;23.05;;;13.38;;
84943;SDS011;75231;53.650;9.788;2024-03-02T09:45:05;25.67;;;12.38;;
84943;SDS011;75231;53.650;9.788;2024-03-02T09:47:31;21.70;;;12.00;;
84943;SDS011;75231;53.650;9.788;2024-03-02T09:49:56;20.15;;;11.35;;
84943;SDS011;75231;53.650;9.788;2024-03-02T09:52:22;18.98;;;11.18;;
84943;SDS011;75231;53.650;9.788;2024-03-02T09:54:48;16.63;;;10.63;;
84943;SDS011;75231;53.650;9.788;2024-03-02T09:57:17;18.30;;;11.65;;
84943;SDS011;75231;53.650;9.788;2024-03-02T09:59:42;24.45;;;12.45;;
84943;SDS011;75231;53.650;9.788;2024-03-02T10:02:07;20.77;;;12.52;;
84943;SDS011;75231;53.650;9.788;2024-03-02T10:04:33;22.63;;;11.63;;
84943;SDS011;75231;53.650;9.788;2024-03-02T10:07:13;17.63;;;10.73;;
84943;SDS011;75231;53.650;9.788;2024-03-02T10:09:44;20.92;;;11.30;;
84943;SDS011;75231;53.650;9.788;2024-03-02T10:12:13;15.40;;;9.93;;
84943;SDS011;75231;53.650;9.788;2024-03-02T10:14:40;19.50;;;10.90;;
84943;SDS011;75231;53.650;9.788;2024-03-02T10:17:07;19.45;;;10.63;;
84943;SDS011;75231;53.650;9.788;2024-03-02T10:19:34;18.67;;;10.60;;
84943;SDS011;75231;53.650;9.788;2024-03-02T10:22:00;18.05;;;10.13;;
84943;SDS011;75231;53.650;9.788;2024-03-02T10:24:27;15.85;;;9.82;;
84943;SDS011;75231;53.650;9.788;2024-03-02T10:27:02;18.48;;;10.40;;
84943;SDS011;75231;53.650;9.788;2024-03-02T10:29:31;17.50;;;10.18;;
84943;SDS011;75231;53.650;9.788;2024-03-02T10:31:56;15.75;;;10.55;;
84943;SDS011;75231;53.650;9.788;2024-03-02T10:34:24;17.35;;;10.73;;
84943;SDS011;75231;53.650;9.788;2024-03-02T10:36:50;17.35;;;9.93;;
84943;SDS011;75231;53.650;9.788;2024-03-02T10:39:16;17.92;;;10.60;;
84943;SDS011;75231;53.650;9.788;2024-03-02T10:41:42;15.32;;;9.23;;
84943;SDS011;75231;53.650;9.788;2024-03-02T10:44:09;14.45;;;7.93;;
84943;SDS011;75231;53.650;9.788;2024-03-02T10:46:38;15.05;;;8.95;;
84943;SDS011;75231;53.650;9.788;2024-03-02T10:49:04;12.82;;;8.13;;
84943;SDS011;75231;53.650;9.788;2024-03-02T10:51:31;14.68;;;9.20;;
84943;SDS011;75231;53.650;9.788;2024-03-02T10:53:58;17.15;;;9.77;;
84943;SDS011;75231;53.650;9.788;2024-03-02T10:56:28;13.93;;;8.05;;
84943;SDS011;75231;53.650;9.788;2024-03-02T11:01:59;15.35;;;7.78;;
84943;SDS011;75231;53.650;9.788;2024-03-02T11:04:29;13.40;;;8.63;;
84943;SDS011;75231;53.650;9.788;2024-03-02T11:07:00;11.82;;;8.52;;
84943;SDS011;75231;53.650;9.788;2024-03-02T11:09:29;11.80;;;6.75;;
84943;SDS011;75231;53.650;9.788;2024-03-02T11:12:19;11.25;;;7.70;;
84943;SDS011;75231;53.650;9.788;2024-03-02T11:14:47;10.85;;;7.70;;
84943;SDS011;75231;53.650;9.788;2024-03-02T11:17:15;11.90;;;7.63;;
84943;SDS011;75231;53.650;9.788;2024-03-02T11:19:41;13.73;;;8.77;;
84943;SDS011;75231;53.650;9.788;2024-03-02T11:22:08;12.95;;;7.55;;
84943;SDS011;75231;53.650;9.788;2024-03-02T11:24:34;14.45;;;8.30;;
84943;SDS011;75231;53.650;9.788;2024-03-02T11:27:00;13.63;;;8.48;;
84943;SDS011;75231;53.650;9.788;2024-03-02T11:32:43;15.50;;;9.23;;
84943;SDS011;75231;53.650;9.788;2024-03-02T11:34:50;11.23;;;7.20;;
84943;SDS011;75231;53.650;9.788;2024-03-02T11:37:19;12.18;;;7.28;;
84943;SDS011;75231;53.650;9.788;2024-03-02T11:39:49;12.25;;;7.72;;
84943;SDS011;75231;53.650;9.788;2024-03-02T11:42:15;11.50;;;8.25;;
84943;SDS011;75231;53.650;9.788;2024-03-02T11:44:42;12.65;;;7.07;;
84943;SDS011;75231;53.650;9.788;2024-03-02T11:47:13;10.73;;;6.88;;
84943;SDS011;75231;53.650;9.788;2024-03-02T11:49:48;12.35;;;7.57;;
84943;SDS011;75231;53.650;9.788;2024-03-02T11:52:16;15.23;;;8.70;;
84943;SDS011;75231;53.650;9.788;2024-03-02T11:54:43;17.40;;;10.75;;
84943;SDS011;75231;53.650;9.788;2024-03-02T11:57:22;13.23;;;9.05;;
84943;SDS011;75231;53.650;9.788;2024-03-02T11:59:48;10.73;;;7.45;;
84943;SDS011;75231;53.650;9.788;2024-03-02T12:02:22;10.50;;;6.68;;
84943;SDS011;75231;53.650;9.788;2024-03-02T12:04:48;11.57;;;7.35;;
84943;SDS011;75231;53.650;9.788;2024-03-02T12:07:21;10.70;;;8.38;;
84943;SDS011;75231;53.650;9.788;2024-03-02T12:09:48;11.60;;;6.90;;
84943;SDS011;75231;53.650;9.788;2024-03-02T12:12:15;12.10;;;7.60;;
84943;SDS011;75231;53.650;9.788;2024-03-02T12:14:52;12.48;;;8.60;;
84943;SDS011;75231;53.650;9.788;2024-03-02T12:17:20;11.70;;;7.53;;
84943;SDS011;75231;53.650;9.788;2024-03-02T12:19:46;11.88;;;7.10;;
84943;SDS011;75231;53.650;9.788;2024-03-02T12:22:11;12.85;;;7.88;;
84943;SDS011;75231;53.650;9.788;2024-03-02T12:24:37;11.55;;;6.65;;
84943;SDS011;75231;53.650;9.788;2024-03-02T12:27:03;9.65;;;6.40;;
84943;SDS011;75231;53.650;9.788;2024-03-02T12:29:30;9.25;;;5.97;;
84943;SDS011;75231;53.650;9.788;2024-03-02T12:31:55;9.85;;;5.38;;
84943;SDS011;75231;53.650;9.788;2024-03-02T12:34:21;8.45;;;5.07;;
84943;SDS011;75231;53.650;9.788;2024-03-02T12:36:48;9.55;;;5.63;;
84943;SDS011;75231;53.650;9.788;2024-03-02T12:39:21;7.53;;;5.00;;
84943;SDS011;75231;53.650;9.788;2024-03-02T12:41:50;8.65;;;5.38;;
84943;SDS011;75231;53.650;9.788;2024-03-02T12:44:16;7.82;;;5.00;;
84943;SDS011;75231;53.650;9.788;2024-03-02T12:46:41;7.75;;;4.93;;
84943;SDS011;75231;53.650;9.788;2024-03-02T12:49:14;8.32;;;4.97;;
84943;SDS011;75231;53.650;9.788;2024-03-02T12:51:43;7.28;;;4.53;;
84943;SDS011;75231;53.650;9.788;2024-03-02T12:54:09;7.13;;;5.25;;
84943;SDS011;75231;53.650;9.788;2024-03-02T12:56:36;7.88;;;4.90;;
84943;SDS011;75231;53.650;9.788;2024-03-02T12:59:02;7.22;;;5.03;;
84943;SDS011;75231;53.650;9.788;2024-03-02T13:01:28;7.90;;;4.50;;
84943;SDS011;75231;53.650;9.788;2024-03-02T13:03:53;8.57;;;4.22;;
84943;SDS011;75231;53.650;9.788;2024-03-02T13:06:22;5.93;;;3.92;;
84943;SDS011;75231;53.650;9.788;2024-03-02T13:08:48;6.43;;;4.35;;
84943;SDS011;75231;53.650;9.788;2024-03-02T13:11:14;6.20;;;4.38;;
84943;SDS011;75231;53.650;9.788;2024-03-02T13:13:41;8.02;;;5.53;;
84943;SDS011;75231;53.650;9.788;2024-03-02T13:16:10;8.25;;;4.85;;
84943;SDS011;75231;53.650;9.788;2024-03-02T13:18:36;7.55;;;5.28;;
84943;SDS011;75231;53.650;9.788;2024-03-02T13:21:03;9.32;;;6.30;;
84943;SDS011;75231;53.650;9.788;2024-03-02T13:23:28;9.38;;;6.05;;
84943;SDS011;75231;53.650;9.788;2024-03-02T13:25:55;12.57;;;6.28;;
84943;SDS011;75231;53.650;9.788;2024-03-02T13:28:21;9.05;;;6.43;;
84943;SDS011;75231;53.650;9.788;2024-03-02T13:30:47;9.60;;;7.00;;
84943;SDS011;75231;53.650;9.788;2024-03-02T13:33:12;12.05;;;5.93;;
84943;SDS011;75231;53.650;9.788;2024-03-02T13:35:37;8.68;;;5.97;;
84943;SDS011;75231;53.650;9.788;2024-03-02T13:38:03;11.05;;;6.30;;
84943;SDS011;75231;53.650;9.788;2024-03-02T13:40:28;8.48;;;5.65;;
84943;SDS011;75231;53.650;9.788;2024-03-02T13:46:17;11.07;;;6.10;;
84943;SDS011;75231;53.650;9.788;2024-03-02T13:48:42;7.13;;;5.25;;
84943;SDS011;75231;53.650;9.788;2024-03-02T13:51:10;7.85;;;4.97;;
84943;SDS011;75231;53.650;9.788;2024-03-02T13:53:35;7.30;;;4.88;;
84943;SDS011;75231;53.650;9.788;2024-03-02T13:56:02;6.60;;;4.68;;
84943;SDS011;75231;53.650;9.788;2024-03-02T13:58:27;7.07;;;4.95;;
84943;SDS011;75231;53.650;9.788;2024-03-02T14:00:55;8.65;;;5.85;;
84943;SDS011;75231;53.650;9.788;2024-03-02T14:03:21;8.38;;;5.13;;
84943;SDS011;75231;53.650;9.788;2024-03-02T14:05:47;11.98;;;6.63;;
84943;SDS011;75231;53.650;9.788;2024-03-02T14:08:17;10.73;;;6.38;;
84943;SDS011;75231;53.650;9.788;2024-03-02T14:14:04;9.50;;;5.68;;
84943;SDS011;75231;53.650;9.788;2024-03-02T14:16:29;9.82;;;6.10;;
84943;SDS011;75231;53.650;9.788;2024-03-02T14:18:55;9.93;;;5.80;;
84943;SDS011;75231;53.650;9.788;2024-03-02T14:21:21;10.77;;;5.85;;
84943;SDS011;75231;53.650;9.788;2024-03-02T14:23:46;8.77;;;5.60;;
84943;SDS011;75231;53.650;9.788;2024-03-02T14:26:12;10.40;;;5.40;;
84943;SDS011;75231;53.650;9.788;2024-03-02T14:28:37;8.35;;;5.47;;
84943;SDS011;75231;53.650;9.788;2024-03-02T14:31:02;7.85;;;5.35;;
84943;SDS011;75231;53.650;9.788;2024-03-02T14:33:28;8.35;;;5.45;;
84943;SDS011;75231;53.650;9.788;2024-03-02T14:35:53;11.05;;;6.43;;
84943;SDS011;75231;53.650;9.788;2024-03-02T14:38:19;8.75;;;6.55;;
84943;SDS011;75231;53.650;9.788;2024-03-02T14:40:44;7.78;;;5.40;;
84943;SDS011;75231;53.650;9.788;2024-03-02T14:43:10;8.00;;;6.10;;
84943;SDS011;75231;53.650;9.788;2024-03-02T14:45:38;8.05;;;6.10;;
84943;SDS011;75231;53.650;9.788;2024-03-02T14:48:03;8.48;;;6.05;;
84943;SDS011;75231;53.650;9.788;2024-03-02T14:50:29;10.15;;;6.30;;
84943;SDS011;75231;53.650;9.788;2024-03-02T14:52:54;10.57;;;6.72;;
84943;SDS011;75231;53.650;9.788;2024-03-02T14:55:23;11.48;;;6.63;;
84943;SDS011;75231;53.650;9.788;2024-03-02T14:57:49;9.63;;;6.53;;
84943;SDS011;75231;53.650;9.788;2024-03-02T15:00:14;9.23;;;6.22;;
84943;SDS011;75231;53.650;9.788;2024-03-02T15:02:43;10.65;;;7.13;;
84943;SDS011;75231;53.650;9.788;2024-03-02T15:05:08;10.90;;;6.68;;
84943;SDS011;75231;53.650;9.788;2024-03-02T15:07:33;11.13;;;7.75;;
84943;SDS011;75231;53.650;9.788;2024-03-02T15:09:59;9.73;;;6.70;;
84943;SDS011;75231;53.650;9.788;2024-03-02T15:12:24;12.63;;;7.47;;
84943;SDS011;75231;53.650;9.788;2024-03-02T15:14:50;12.02;;;7.38;;
84943;SDS011;75231;53.650;9.788;2024-03-02T15:17:15;9.63;;;6.70;;
84943;SDS011;75231;53.650;9.788;2024-03-02T15:19:42;10.80;;;6.07;;
84943;SDS011;75231;53.650;9.788;2024-03-02T15:22:08;10.52;;;6.43;;
84943;SDS011;75231;53.650;9.788;2024-03-02T15:24:36;11.80;;;7.43;;
84943;SDS011;75231;53.650;9.788;2024-03-02T15:27:01;14.35;;;6.57;;
84943;SDS011;75231;53.650;9.788;2024-03-02T15:29:31;10.52;;;5.80;;
84943;SDS011;75231;53.650;9.788;2024-03-02T15:31:57;9.27;;;5.45;;
84943;SDS011;75231;53.650;9.788;2024-03-02T15:34:22;9.90;;;6.18;;
84943;SDS011;75231;53.650;9.788;2024-03-02T15:36:48;8.60;;;5.70;;
84943;SDS011;75231;53.650;9.788;2024-03-02T15:39:14;7.60;;;5.82;;
84943;SDS011;75231;53.650;9.788;2024-03-02T15:41:39;10.18;;;5.75;;
84943;SDS011;75231;53.650;9.788;2024-03-02T15:44:06;7.85;;;5.20;;
84943;SDS011;75231;53.650;9.788;2024-03-02T15:46:32;10.68;;;5.78;;